createdAt,value
2023-02-12T00:01:17.974Z,8.44
2023-02-12T00:05:23.353Z,8.45
2023-02-12T00:09:26.273Z,8.42
2023-02-12T00:13:32.096Z,8.36
2023-02-12T00:17:35.291Z,8.38
2023-02-12T00:21:39.638Z,8.32
2023-02-12T00:25:43.771Z,8.34
2023-02-12T00:29:46.724Z,8.37
2023-02-12T00:33:49.815Z,8.37
2023-02-12T00:37:54.100Z,8.35
2023-02-12T00:41:57.329Z,8.35
2023-02-12T00:46:00.887Z,8.34
2023-02-12T00:50:04.590Z,8.38
2023-02-12T00:54:08.859Z,8.39
2023-02-12T00:58:11.993Z,8.36
2023-02-12T01:02:15.011Z,8.33
2023-02-12T01:06:18.038Z,8.32
2023-02-12T01:10:26.276Z,8.37
2023-02-12T01:14:29.644Z,8.38
2023-02-12T01:18:33.284Z,8.38
2023-02-12T01:22:36.651Z,8.35
2023-02-12T01:26:41.115Z,8.34
2023-02-12T01:30:44.310Z,8.33
2023-02-12T01:34:47.237Z,8.33
2023-02-12T01:38:51.774Z,8.33
2023-02-12T01:42:57.050Z,8.31
2023-02-12T01:47:03.265Z,8.33
2023-02-12T01:51:08.472Z,8.33
2023-02-12T01:55:13.008Z,8.31
2023-02-12T01:59:19.721Z,8.31
2023-02-12T02:03:22.917Z,8.30
2023-02-12T02:07:26.311Z,8.27
2023-02-12T02:11:47.271Z,8.27
2023-02-12T02:15:57.855Z,8.23
2023-02-12T02:20:40.175Z,8.24
2023-02-12T02:25:09.880Z,8.25
2023-02-12T02:29:28.973Z,8.25
2023-02-12T02:33:42.845Z,8.25
2023-02-12T02:37:51.278Z,8.19
2023-02-12T02:42:11.478Z,8.16
2023-02-12T02:46:21.636Z,8.11
2023-02-12T02:50:30.336Z,8.10
2023-02-12T02:54:38.628Z,8.09
2023-02-12T02:58:45.334Z,8.06
2023-02-12T03:02:53.382Z,8.06
2023-02-12T03:07:03.275Z,8.03
2023-02-12T03:11:11.965Z,7.99
2023-02-12T03:15:22.260Z,7.99
2023-02-12T03:19:30.590Z,7.98
2023-02-12T03:23:40.640Z,7.95
2023-02-12T03:27:48.129Z,7.93
2023-02-12T03:32:04.862Z,7.95
2023-02-12T03:36:17.832Z,7.94
2023-02-12T03:40:29.303Z,7.93
2023-02-12T03:44:48.895Z,7.93
2023-02-12T03:49:00.398Z,7.94
2023-02-12T03:53:03.916Z,7.91
2023-02-12T03:57:11.496Z,7.89
2023-02-12T04:01:15.044Z,7.90
2023-02-12T04:05:20.581Z,7.89
2023-02-12T04:09:25.746Z,7.88
2023-02-12T04:13:40.873Z,7.88
2023-02-12T04:17:51.156Z,7.83
2023-02-12T04:22:13.054Z,7.81
2023-02-12T04:26:24.820Z,7.84
2023-02-12T04:30:36.510Z,7.79
2023-02-12T04:34:48.370Z,7.78
2023-02-12T04:38:56.221Z,7.75
2023-02-12T04:42:59.179Z,7.74
2023-02-12T04:47:03.817Z,7.72
2023-02-12T04:51:06.921Z,7.69
2023-02-12T04:55:09.963Z,7.70
2023-02-12T04:59:13.041Z,7.67
2023-02-12T05:03:17.618Z,7.66
2023-02-12T05:07:20.752Z,7.64
2023-02-12T05:11:24.214Z,7.61
2023-02-12T05:15:27.479Z,7.57
2023-02-12T05:19:32.288Z,7.56
2023-02-12T05:23:37.161Z,7.54
2023-02-12T05:27:42.186Z,7.52
2023-02-12T05:31:45.829Z,7.54
2023-02-12T05:35:51.102Z,7.57
2023-02-12T05:39:54.523Z,7.58
2023-02-12T05:43:57.802Z,7.55
2023-02-12T05:48:00.837Z,7.52
2023-02-12T05:52:06.080Z,7.49
2023-02-12T05:56:11.192Z,7.48
2023-02-12T06:00:15.382Z,7.48
2023-02-12T06:04:20.576Z,7.46
2023-02-12T06:08:25.186Z,7.42
2023-02-12T06:12:28.059Z,7.42
2023-02-12T06:16:31.213Z,7.39
2023-02-12T06:20:34.292Z,7.36
2023-02-12T06:24:39.627Z,7.36
2023-02-12T06:28:42.970Z,7.36
2023-02-12T06:32:50.006Z,7.41
2023-02-12T06:36:53.326Z,7.41
2023-02-12T06:40:58.366Z,7.40
2023-02-12T06:45:03.600Z,7.41
2023-02-12T06:49:07.016Z,7.40
2023-02-12T06:53:09.988Z,7.42
2023-02-12T06:57:14.321Z,7.45
2023-02-12T07:01:19.176Z,7.42
2023-02-12T07:05:22.409Z,7.37
2023-02-12T07:09:25.345Z,7.40
2023-02-12T07:13:30.446Z,7.41
2023-02-12T07:17:33.487Z,7.42
2023-02-12T07:21:37.124Z,7.43
2023-02-12T07:25:40.405Z,7.44
2023-02-12T07:29:44.737Z,7.44
2023-02-12T07:33:48.457Z,7.46
2023-02-12T07:37:51.529Z,7.46
2023-02-12T07:41:54.579Z,7.43
2023-02-12T07:46:07.440Z,7.44
2023-02-12T07:50:11.294Z,7.48
2023-02-12T07:54:14.834Z,7.48
2023-02-12T07:58:18.160Z,7.46
2023-02-12T08:02:25.539Z,7.51
2023-02-12T08:06:30.166Z,7.52
2023-02-12T08:10:33.077Z,7.58
2023-02-12T08:14:36.924Z,7.58
2023-02-12T08:18:41.990Z,7.60
2023-02-12T08:22:45.035Z,7.64
2023-02-12T08:26:48.047Z,7.75
2023-02-12T08:30:51.098Z,7.78
2023-02-12T08:34:56.919Z,7.85
2023-02-12T08:39:00.142Z,7.88
2023-02-12T08:43:03.727Z,7.90
2023-02-12T08:47:07.210Z,7.97
2023-02-12T08:51:13.372Z,8.02
2023-02-12T08:55:16.540Z,8.04
2023-02-12T08:59:19.664Z,8.07
2023-02-12T09:03:24.930Z,8.08
2023-02-12T09:07:29.779Z,8.11
2023-02-12T09:11:35.512Z,8.14
2023-02-12T09:15:39.157Z,8.18
2023-02-12T09:19:42.259Z,8.25
2023-02-12T09:23:47.425Z,8.37
2023-02-12T09:27:51.141Z,8.44
2023-02-12T09:31:54.352Z,8.51
2023-02-12T09:36:02.079Z,8.58
2023-02-12T09:40:07.842Z,8.65
2023-02-12T09:44:18.545Z,8.67
2023-02-12T09:48:48.974Z,8.72
2023-02-12T09:52:53.204Z,8.79
2023-02-12T09:57:01.914Z,8.85
2023-02-12T10:01:13.611Z,8.88
2023-02-12T10:05:21.592Z,8.89
2023-02-12T10:09:45.598Z,8.94
2023-02-12T10:13:59.292Z,8.97
2023-02-12T10:18:17.197Z,8.94
2023-02-12T10:22:27.997Z,9.01
2023-02-12T10:26:32.956Z,9.12
2023-02-12T10:30:44.015Z,9.16
2023-02-12T10:34:49.626Z,9.27
2023-02-12T10:38:59.370Z,9.34
2023-02-12T10:43:03.550Z,9.37
2023-02-12T10:47:08.642Z,9.41
2023-02-12T10:51:30.930Z,9.46
2023-02-12T10:55:36.805Z,9.59
2023-02-12T10:59:40.333Z,9.66
2023-02-12T11:03:44.829Z,9.75
2023-02-12T11:07:50.627Z,9.71
2023-02-12T11:11:53.427Z,9.76
2023-02-12T11:15:56.692Z,9.81
2023-02-12T11:20:24.947Z,9.85
2023-02-12T11:24:31.868Z,9.86
2023-02-12T11:28:37.208Z,9.92
2023-02-12T11:32:40.786Z,10.00
2023-02-12T11:36:46.950Z,10.12
2023-02-12T11:40:50.452Z,10.26
2023-02-12T11:44:55.998Z,10.36
2023-02-12T11:49:00.810Z,10.41
2023-02-12T11:53:09.434Z,10.46
2023-02-12T11:57:36.818Z,10.42
2023-02-12T12:01:41.774Z,10.54
2023-02-12T12:05:49.286Z,10.73
2023-02-12T12:10:01.281Z,10.72
2023-02-12T12:14:10.539Z,10.71
2023-02-12T12:18:44.333Z,10.65
2023-02-12T12:22:55.252Z,10.80
2023-02-12T12:27:14.195Z,10.78
2023-02-12T12:31:21.073Z,10.87
2023-02-12T12:35:37.513Z,10.80
2023-02-12T12:39:54.898Z,10.75
2023-02-12T12:44:16.719Z,10.81
2023-02-12T12:48:34.771Z,10.82
2023-02-12T12:53:01.677Z,10.88
2023-02-12T12:57:11.625Z,10.99
2023-02-12T13:01:38.606Z,11.03
2023-02-12T13:06:27.598Z,11.04
2023-02-12T13:10:36.831Z,11.05
2023-02-12T13:14:48.397Z,11.07
2023-02-12T13:19:00.688Z,11.07
2023-02-12T13:23:10.597Z,11.10
2023-02-12T13:27:17.737Z,11.11
2023-02-12T13:31:32.961Z,11.10
2023-02-12T13:35:43.464Z,11.11
2023-02-12T13:39:50.299Z,11.08
2023-02-12T13:44:11.840Z,11.01
2023-02-12T13:48:45.052Z,10.95
2023-02-12T13:52:53.932Z,10.93
2023-02-12T13:56:59.888Z,10.93
2023-02-12T14:01:04.934Z,10.88
2023-02-12T14:05:18.787Z,10.92
2023-02-12T14:09:29.941Z,10.96
2023-02-12T14:13:37.832Z,10.96
2023-02-12T14:17:52.899Z,10.99
2023-02-12T14:21:56.135Z,10.83
2023-02-12T14:26:04.945Z,10.83
2023-02-12T14:30:28.910Z,10.77
2023-02-12T14:34:40.148Z,10.74
2023-02-12T14:39:02.688Z,10.71
2023-02-12T14:43:26.782Z,10.72
2023-02-12T14:47:53.672Z,10.74
2023-02-12T14:52:01.498Z,10.73
2023-02-12T14:56:09.306Z,10.72
2023-02-12T15:00:26.485Z,10.73
2023-02-12T15:04:33.267Z,10.77
2023-02-12T15:08:45.949Z,10.76
2023-02-12T15:12:55.841Z,10.82
2023-02-12T15:17:10.007Z,10.82
2023-02-12T15:21:20.964Z,10.83
2023-02-12T15:25:26.798Z,10.80
2023-02-12T15:29:33.070Z,10.83
2023-02-12T15:33:42.818Z,10.78
2023-02-12T15:37:48.078Z,10.75
2023-02-12T15:41:52.181Z,10.74
2023-02-12T15:45:55.568Z,10.69
2023-02-12T15:50:01.752Z,10.58
2023-02-12T15:54:07.990Z,10.60
2023-02-12T15:58:22.526Z,10.61
2023-02-12T16:02:28.339Z,10.60
2023-02-12T16:06:34.701Z,10.60
2023-02-12T16:10:43.610Z,10.54
2023-02-12T16:14:49.892Z,10.50
2023-02-12T16:19:18.542Z,10.46
2023-02-12T16:23:23.726Z,10.47
2023-02-12T16:27:30.205Z,10.43
2023-02-12T16:31:33.343Z,10.42
2023-02-12T16:35:36.720Z,10.41
2023-02-12T16:40:21.324Z,10.37
2023-02-12T16:44:34.607Z,10.33
2023-02-12T16:48:42.521Z,10.30
2023-02-12T16:52:45.686Z,10.28
2023-02-12T16:56:49.345Z,10.23
2023-02-12T17:00:54.689Z,10.16
2023-02-12T17:05:00.857Z,10.08
2023-02-12T17:09:04.796Z,10.08
2023-02-12T17:13:08.916Z,10.03
2023-02-12T17:17:13.348Z,10.02
2023-02-12T17:21:22.796Z,9.98
2023-02-12T17:25:30.113Z,9.98
2023-02-12T17:29:33.237Z,9.94
2023-02-12T17:33:37.648Z,9.90
2023-02-12T17:37:40.875Z,9.90
2023-02-12T17:41:44.693Z,9.89
2023-02-12T17:45:47.742Z,9.85
2023-02-12T17:49:52.459Z,9.81
2023-02-12T17:53:55.526Z,9.78
2023-02-12T17:57:59.240Z,9.75
2023-02-12T18:02:02.774Z,9.72
2023-02-12T18:06:09.397Z,9.72
2023-02-12T18:10:12.793Z,9.72
2023-02-12T18:14:15.672Z,9.68
2023-02-12T18:18:19.587Z,9.66
2023-02-12T18:22:24.834Z,9.60
2023-02-12T18:26:27.970Z,9.53
2023-02-12T18:30:31.263Z,9.53
2023-02-12T18:34:35.538Z,9.52
2023-02-12T18:38:41.569Z,9.51
2023-02-12T18:42:46.191Z,9.51
2023-02-12T18:46:59.891Z,9.50
2023-02-12T18:51:23.382Z,9.48
2023-02-12T18:55:53.552Z,9.46
2023-02-12T19:00:22.994Z,9.44
2023-02-12T19:04:52.468Z,9.44
2023-02-12T19:09:10.327Z,9.42
2023-02-12T19:13:14.613Z,9.42
2023-02-12T19:17:18.632Z,9.38
2023-02-12T19:21:26.050Z,9.32
2023-02-12T19:25:42.790Z,9.25
2023-02-12T19:29:47.077Z,9.26
2023-02-12T19:33:51.397Z,9.27
2023-02-12T19:37:55.029Z,9.27
2023-02-12T19:41:58.050Z,9.27
2023-02-12T19:46:07.111Z,9.28
2023-02-12T19:50:15.960Z,9.26
2023-02-12T19:54:29.481Z,9.27
2023-02-12T19:58:45.958Z,9.25
2023-02-12T20:03:00.267Z,9.24
2023-02-12T20:07:04.129Z,9.22
2023-02-12T20:11:09.696Z,9.19
2023-02-12T20:15:12.728Z,9.20
2023-02-12T20:19:19.624Z,9.19
2023-02-12T20:23:23.297Z,9.16
2023-02-12T20:27:27.296Z,9.16
2023-02-12T20:31:33.817Z,9.18
2023-02-12T20:35:41.495Z,9.17
2023-02-12T20:39:45.925Z,9.14
2023-02-12T20:43:55.128Z,9.13
2023-02-12T20:48:04.772Z,9.10
2023-02-12T20:52:24.206Z,9.10
2023-02-12T20:56:36.836Z,9.08
2023-02-12T21:00:39.715Z,9.05
2023-02-12T21:04:43.422Z,9.05
2023-02-12T21:08:48.108Z,9.04
2023-02-12T21:12:55.147Z,9.05
2023-02-12T21:17:05.617Z,9.05
2023-02-12T21:21:12.238Z,9.02
2023-02-12T21:25:20.597Z,9.01
2023-02-12T21:29:26.475Z,9.00
2023-02-12T21:33:29.813Z,8.98
2023-02-12T21:37:33.139Z,8.98
2023-02-12T21:41:42.845Z,8.97
2023-02-12T21:46:15.367Z,8.96
2023-02-12T21:50:30.640Z,8.95
2023-02-12T21:54:34.308Z,8.96
2023-02-12T21:58:38.870Z,8.95
2023-02-12T22:02:42.447Z,8.93
2023-02-12T22:06:49.151Z,8.92
2023-02-12T22:10:52.062Z,8.91
2023-02-12T22:14:56.264Z,8.89
2023-02-12T22:19:01.758Z,8.88
2023-02-12T22:23:05.146Z,8.85
2023-02-12T22:27:09.577Z,8.82
2023-02-12T22:31:17.155Z,8.79
2023-02-12T22:35:21.552Z,8.75
2023-02-12T22:39:25.628Z,8.77
2023-02-12T22:43:51.042Z,8.73
2023-02-12T22:48:17.912Z,8.72
2023-02-12T22:52:20.987Z,8.73
2023-02-12T22:56:25.665Z,8.73
2023-02-12T23:00:29.423Z,8.71
2023-02-12T23:04:34.773Z,8.71
2023-02-12T23:08:38.370Z,8.72
2023-02-12T23:12:41.492Z,8.71
2023-02-12T23:16:44.600Z,8.71
2023-02-12T23:20:50.124Z,8.68
2023-02-12T23:24:53.298Z,8.67
2023-02-12T23:28:56.998Z,8.60
2023-02-12T23:33:00.483Z,8.58
2023-02-12T23:37:05.459Z,8.56
2023-02-12T23:41:08.431Z,8.53
2023-02-12T23:45:12.275Z,8.50
2023-02-12T23:49:15.562Z,8.46
2023-02-12T23:53:20.050Z,8.43
2023-02-12T23:57:23.206Z,8.41
